sensor_id;sensor_type;location;lat;lon;timestamp;P1;durP1;ratioP1;P2;durP2;ratioP2
44197;SDS011;30157;55.512;37.764;2022-07-06T00:01:42;18.95;;;15.45;;
44197;SDS011;30157;55.512;37.764;2022-07-06T00:04:08;20.10;;;15.80;;
44197;SDS011;30157;55.512;37.764;2022-07-06T00:06:34;17.77;;;14.50;;
44197;SDS011;30157;55.512;37.764;2022-07-06T00:09:00;19.48;;;14.50;;
44197;SDS011;30157;55.512;37.764;2022-07-06T00:11:26;19.67;;;15.20;;
44197;SDS011;30157;55.512;37.764;2022-07-06T00:13:52;18.13;;;15.13;;
44197;SDS011;30157;55.512;37.764;2022-07-06T00:16:18;16.88;;;13.50;;
44197;SDS011;30157;55.512;37.764;2022-07-06T00:18:44;19.50;;;14.15;;
44197;SDS011;30157;55.512;37.764;2022-07-06T00:21:10;16.42;;;13.25;;
44197;SDS011;30157;55.512;37.764;2022-07-06T00:23:36;16.83;;;13.63;;
44197;SDS011;30157;55.512;37.764;2022-07-06T00:26:02;18.48;;;14.52;;
44197;SDS011;30157;55.512;37.764;2022-07-06T00:28:31;17.02;;;13.70;;
44197;SDS011;30157;55.512;37.764;2022-07-06T00:30:56;19.00;;;14.70;;
44197;SDS011;30157;55.512;37.764;2022-07-06T00:33:22;19.80;;;15.35;;
44197;SDS011;30157;55.512;37.764;2022-07-06T00:35:48;20.63;;;15.35;;
44197;SDS011;30157;55.512;37.764;2022-07-06T00:38:14;19.15;;;15.85;;
44197;SDS011;30157;55.512;37.764;2022-07-06T00:40:40;20.67;;;16.17;;
44197;SDS011;30157;55.512;37.764;2022-07-06T00:43:06;19.08;;;15.73;;
44197;SDS011;30157;55.512;37.764;2022-07-06T00:45:32;20.80;;;15.95;;
44197;SDS011;30157;55.512;37.764;2022-07-06T00:47:58;20.77;;;15.50;;
44197;SDS011;30157;55.512;37.764;2022-07-06T00:50:23;21.23;;;16.38;;
44197;SDS011;30157;55.512;37.764;2022-07-06T00:53:03;22.35;;;16.52;;
44197;SDS011;30157;55.512;37.764;2022-07-06T00:55:32;19.00;;;14.68;;
44197;SDS011;30157;55.512;37.764;2022-07-06T00:58:03;19.80;;;14.82;;
44197;SDS011;30157;55.512;37.764;2022-07-06T01:00:29;18.30;;;14.40;;
44197;SDS011;30157;55.512;37.764;2022-07-06T01:02:58;19.42;;;13.80;;
44197;SDS011;30157;55.512;37.764;2022-07-06T01:05:24;16.55;;;12.57;;
44197;SDS011;30157;55.512;37.764;2022-07-06T01:07:50;21.60;;;14.65;;
44197;SDS011;30157;55.512;37.764;2022-07-06T01:10:18;16.90;;;14.07;;
44197;SDS011;30157;55.512;37.764;2022-07-06T01:12:46;16.75;;;13.18;;
44197;SDS011;30157;55.512;37.764;2022-07-06T01:15:15;18.00;;;14.55;;
44197;SDS011;30157;55.512;37.764;2022-07-06T01:17:45;20.02;;;15.88;;
44197;SDS011;30157;55.512;37.764;2022-07-06T01:20:15;22.52;;;16.10;;
44197;SDS011;30157;55.512;37.764;2022-07-06T01:22:43;23.88;;;16.38;;
44197;SDS011;30157;55.512;37.764;2022-07-06T01:25:10;21.08;;;16.13;;
44197;SDS011;30157;55.512;37.764;2022-07-06T01:27:37;20.77;;;16.85;;
44197;SDS011;30157;55.512;37.764;2022-07-06T01:30:05;22.13;;;17.45;;
44197;SDS011;30157;55.512;37.764;2022-07-06T01:32:33;20.65;;;16.00;;
44197;SDS011;30157;55.512;37.764;2022-07-06T01:34:59;19.35;;;15.32;;
44197;SDS011;30157;55.512;37.764;2022-07-06T01:37:25;21.20;;;16.42;;
44197;SDS011;30157;55.512;37.764;2022-07-06T01:39:51;20.00;;;16.52;;
44197;SDS011;30157;55.512;37.764;2022-07-06T01:42:17;22.48;;;17.02;;
44197;SDS011;30157;55.512;37.764;2022-07-06T01:44:44;21.92;;;16.88;;
44197;SDS011;30157;55.512;37.764;2022-07-06T01:47:10;22.10;;;17.25;;
44197;SDS011;30157;55.512;37.764;2022-07-06T01:49:37;22.05;;;16.48;;
44197;SDS011;30157;55.512;37.764;2022-07-06T01:52:03;22.95;;;15.95;;
44197;SDS011;30157;55.512;37.764;2022-07-06T01:54:29;19.75;;;16.60;;
44197;SDS011;30157;55.512;37.764;2022-07-06T01:56:54;19.38;;;15.85;;
44197;SDS011;30157;55.512;37.764;2022-07-06T01:59:20;22.13;;;16.35;;
44197;SDS011;30157;55.512;37.764;2022-07-06T02:01:46;19.58;;;15.70;;
44197;SDS011;30157;55.512;37.764;2022-07-06T02:04:12;19.83;;;15.70;;
44197;SDS011;30157;55.512;37.764;2022-07-06T02:06:39;20.48;;;16.33;;
44197;SDS011;30157;55.512;37.764;2022-07-06T02:09:06;20.75;;;15.35;;
44197;SDS011;30157;55.512;37.764;2022-07-06T02:11:32;19.40;;;15.73;;
44197;SDS011;30157;55.512;37.764;2022-07-06T02:13:58;19.50;;;15.65;;
44197;SDS011;30157;55.512;37.764;2022-07-06T02:16:24;19.67;;;15.10;;
44197;SDS011;30157;55.512;37.764;2022-07-06T02:18:50;23.50;;;16.92;;
44197;SDS011;30157;55.512;37.764;2022-07-06T02:21:16;23.52;;;16.70;;
44197;SDS011;30157;55.512;37.764;2022-07-06T02:23:41;21.73;;;16.75;;
44197;SDS011;30157;55.512;37.764;2022-07-06T02:26:07;23.40;;;16.80;;
44197;SDS011;30157;55.512;37.764;2022-07-06T02:28:33;20.95;;;16.90;;
44197;SDS011;30157;55.512;37.764;2022-07-06T02:30:59;22.08;;;16.58;;
44197;SDS011;30157;55.512;37.764;2022-07-06T02:33:27;21.60;;;16.52;;
44197;SDS011;30157;55.512;37.764;2022-07-06T02:35:53;19.73;;;15.70;;
44197;SDS011;30157;55.512;37.764;2022-07-06T02:38:20;25.70;;;17.75;;
44197;SDS011;30157;55.512;37.764;2022-07-06T02:40:46;20.77;;;17.15;;
44197;SDS011;30157;55.512;37.764;2022-07-06T02:43:11;20.08;;;15.68;;
44197;SDS011;30157;55.512;37.764;2022-07-06T02:45:40;19.77;;;16.08;;
44197;SDS011;30157;55.512;37.764;2022-07-06T02:48:08;21.65;;;16.80;;
44197;SDS011;30157;55.512;37.764;2022-07-06T02:50:34;21.42;;;16.63;;
44197;SDS011;30157;55.512;37.764;2022-07-06T02:53:02;20.00;;;16.90;;
44197;SDS011;30157;55.512;37.764;2022-07-06T02:55:28;21.50;;;16.63;;
44197;SDS011;30157;55.512;37.764;2022-07-06T02:57:54;21.50;;;17.98;;
44197;SDS011;30157;55.512;37.764;2022-07-06T03:00:21;22.60;;;17.88;;
44197;SDS011;30157;55.512;37.764;2022-07-06T03:02:51;20.92;;;17.25;;
44197;SDS011;30157;55.512;37.764;2022-07-06T03:05:17;20.95;;;17.55;;
44197;SDS011;30157;55.512;37.764;2022-07-06T03:07:43;22.25;;;17.95;;
44197;SDS011;30157;55.512;37.764;2022-07-06T03:10:09;22.33;;;16.50;;
44197;SDS011;30157;55.512;37.764;2022-07-06T03:12:43;21.90;;;17.65;;
44197;SDS011;30157;55.512;37.764;2022-07-06T03:15:09;20.50;;;17.30;;
44197;SDS011;30157;55.512;37.764;2022-07-06T03:17:37;23.63;;;18.95;;
44197;SDS011;30157;55.512;37.764;2022-07-06T03:20:06;20.80;;;17.73;;
44197;SDS011;30157;55.512;37.764;2022-07-06T03:22:35;24.02;;;19.25;;
44197;SDS011;30157;55.512;37.764;2022-07-06T03:25:03;30.48;;;23.08;;
44197;SDS011;30157;55.512;37.764;2022-07-06T03:27:29;25.75;;;21.70;;
44197;SDS011;30157;55.512;37.764;2022-07-06T03:29:59;20.77;;;17.85;;
44197;SDS011;30157;55.512;37.764;2022-07-06T03:32:25;22.92;;;17.77;;
44197;SDS011;30157;55.512;37.764;2022-07-06T03:34:52;23.02;;;19.10;;
44197;SDS011;30157;55.512;37.764;2022-07-06T03:37:18;21.17;;;18.50;;
44197;SDS011;30157;55.512;37.764;2022-07-06T03:39:44;24.40;;;18.70;;
44197;SDS011;30157;55.512;37.764;2022-07-06T03:42:10;22.27;;;18.80;;
44197;SDS011;30157;55.512;37.764;2022-07-06T03:44:36;21.70;;;18.45;;
44197;SDS011;30157;55.512;37.764;2022-07-06T03:47:02;21.75;;;18.85;;
44197;SDS011;30157;55.512;37.764;2022-07-06T03:49:29;21.83;;;19.38;;
44197;SDS011;30157;55.512;37.764;2022-07-06T03:51:58;23.25;;;19.75;;
44197;SDS011;30157;55.512;37.764;2022-07-06T03:54:24;23.27;;;19.33;;
44197;SDS011;30157;55.512;37.764;2022-07-06T03:56:55;23.90;;;20.83;;
44197;SDS011;30157;55.512;37.764;2022-07-06T03:59:21;22.58;;;19.42;;
44197;SDS011;30157;55.512;37.764;2022-07-06T04:01:47;20.35;;;17.67;;
44197;SDS011;30157;55.512;37.764;2022-07-06T04:04:15;23.67;;;21.10;;
44197;SDS011;30157;55.512;37.764;2022-07-06T04:06:44;21.00;;;18.23;;
44197;SDS011;30157;55.512;37.764;2022-07-06T04:09:10;20.10;;;18.00;;
44197;SDS011;30157;55.512;37.764;2022-07-06T04:11:36;20.00;;;17.35;;
44197;SDS011;30157;55.512;37.764;2022-07-06T04:14:03;21.45;;;19.00;;
44197;SDS011;30157;55.512;37.764;2022-07-06T04:16:29;21.05;;;18.40;;
44197;SDS011;30157;55.512;37.764;2022-07-06T04:18:56;21.65;;;19.00;;
44197;SDS011;30157;55.512;37.764;2022-07-06T04:21:23;19.60;;;17.60;;
44197;SDS011;30157;55.512;37.764;2022-07-06T04:23:49;20.20;;;18.00;;
44197;SDS011;30157;55.512;37.764;2022-07-06T04:26:15;19.85;;;17.13;;
44197;SDS011;30157;55.512;37.764;2022-07-06T04:28:41;23.52;;;20.92;;
44197;SDS011;30157;55.512;37.764;2022-07-06T04:31:07;21.13;;;18.30;;
44197;SDS011;30157;55.512;37.764;2022-07-06T04:33:33;19.13;;;17.23;;
44197;SDS011;30157;55.512;37.764;2022-07-06T04:35:59;19.92;;;17.15;;
44197;SDS011;30157;55.512;37.764;2022-07-06T04:38:33;21.83;;;18.30;;
44197;SDS011;30157;55.512;37.764;2022-07-06T04:41:03;20.70;;;18.25;;
44197;SDS011;30157;55.512;37.764;2022-07-06T04:43:29;23.60;;;18.38;;
44197;SDS011;30157;55.512;37.764;2022-07-06T04:45:55;20.95;;;18.88;;
44197;SDS011;30157;55.512;37.764;2022-07-06T04:48:21;22.42;;;19.38;;
44197;SDS011;30157;55.512;37.764;2022-07-06T04:50:47;21.67;;;18.75;;
44197;SDS011;30157;55.512;37.764;2022-07-06T04:53:19;19.88;;;17.77;;
44197;SDS011;30157;55.512;37.764;2022-07-06T04:55:46;22.60;;;19.20;;
44197;SDS011;30157;55.512;37.764;2022-07-06T04:58:11;21.20;;;18.90;;
44197;SDS011;30157;55.512;37.764;2022-07-06T05:00:38;25.15;;;20.42;;
44197;SDS011;30157;55.512;37.764;2022-07-06T05:03:04;20.20;;;18.10;;
44197;SDS011;30157;55.512;37.764;2022-07-06T05:05:30;19.63;;;17.38;;
44197;SDS011;30157;55.512;37.764;2022-07-06T05:07:56;20.10;;;17.95;;
44197;SDS011;30157;55.512;37.764;2022-07-06T05:10:23;17.67;;;15.88;;
44197;SDS011;30157;55.512;37.764;2022-07-06T05:12:53;20.25;;;16.77;;
44197;SDS011;30157;55.512;37.764;2022-07-06T05:15:20;20.30;;;18.20;;
44197;SDS011;30157;55.512;37.764;2022-07-06T05:17:46;17.58;;;15.25;;
44197;SDS011;30157;55.512;37.764;2022-07-06T05:20:13;19.02;;;16.83;;
44197;SDS011;30157;55.512;37.764;2022-07-06T05:22:42;18.23;;;16.35;;
44197;SDS011;30157;55.512;37.764;2022-07-06T05:25:08;18.02;;;16.13;;
44197;SDS011;30157;55.512;37.764;2022-07-06T05:27:36;18.45;;;16.25;;
44197;SDS011;30157;55.512;37.764;2022-07-06T05:30:04;18.88;;;16.15;;
44197;SDS011;30157;55.512;37.764;2022-07-06T05:32:31;17.85;;;15.93;;
44197;SDS011;30157;55.512;37.764;2022-07-06T05:34:57;19.33;;;17.15;;
44197;SDS011;30157;55.512;37.764;2022-07-06T05:37:24;17.35;;;15.50;;
44197;SDS011;30157;55.512;37.764;2022-07-06T05:39:50;19.08;;;17.08;;
44197;SDS011;30157;55.512;37.764;2022-07-06T05:42:16;18.13;;;15.85;;
44197;SDS011;30157;55.512;37.764;2022-07-06T05:44:44;19.02;;;17.17;;
44197;SDS011;30157;55.512;37.764;2022-07-06T05:47:09;17.92;;;15.93;;
44197;SDS011;30157;55.512;37.764;2022-07-06T05:49:54;18.25;;;16.20;;
44197;SDS011;30157;55.512;37.764;2022-07-06T05:52:41;19.60;;;17.48;;
44197;SDS011;30157;55.512;37.764;2022-07-06T05:55:09;20.67;;;16.48;;
44197;SDS011;30157;55.512;37.764;2022-07-06T05:57:35;16.92;;;15.13;;
44197;SDS011;30157;55.512;37.764;2022-07-06T06:00:02;17.67;;;15.98;;
44197;SDS011;30157;55.512;37.764;2022-07-06T06:02:40;17.55;;;15.65;;
44197;SDS011;30157;55.512;37.764;2022-07-06T06:05:09;18.02;;;16.23;;
44197;SDS011;30157;55.512;37.764;2022-07-06T06:07:36;16.33;;;14.63;;
44197;SDS011;30157;55.512;37.764;2022-07-06T06:10:04;17.77;;;16.00;;
44197;SDS011;30157;55.512;37.764;2022-07-06T06:12:33;18.13;;;16.23;;
44197;SDS011;30157;55.512;37.764;2022-07-06T06:15:00;18.73;;;16.83;;
44197;SDS011;30157;55.512;37.764;2022-07-06T06:17:26;18.05;;;15.52;;
44197;SDS011;30157;55.512;37.764;2022-07-06T06:19:52;17.77;;;16.00;;
44197;SDS011;30157;55.512;37.764;2022-07-06T06:22:18;17.60;;;15.88;;
44197;SDS011;30157;55.512;37.764;2022-07-06T06:24:44;17.88;;;16.02;;
44197;SDS011;30157;55.512;37.764;2022-07-06T06:27:10;16.25;;;14.65;;
44197;SDS011;30157;55.512;37.764;2022-07-06T06:29:35;14.90;;;13.40;;
44197;SDS011;30157;55.512;37.764;2022-07-06T06:32:01;15.85;;;14.32;;
44197;SDS011;30157;55.512;37.764;2022-07-06T06:34:27;15.98;;;14.43;;
44197;SDS011;30157;55.512;37.764;2022-07-06T06:36:52;15.07;;;13.65;;
44197;SDS011;30157;55.512;37.764;2022-07-06T06:39:18;13.50;;;12.25;;
44197;SDS011;30157;55.512;37.764;2022-07-06T06:41:44;13.20;;;11.90;;
44197;SDS011;30157;55.512;37.764;2022-07-06T06:44:09;12.50;;;11.32;;
44197;SDS011;30157;55.512;37.764;2022-07-06T06:46:40;12.27;;;10.95;;
44197;SDS011;30157;55.512;37.764;2022-07-06T06:49:06;13.35;;;12.05;;
44197;SDS011;30157;55.512;37.764;2022-07-06T06:51:32;14.00;;;12.70;;
44197;SDS011;30157;55.512;37.764;2022-07-06T06:53:58;14.95;;;13.45;;
44197;SDS011;30157;55.512;37.764;2022-07-06T06:56:24;14.02;;;12.63;;
44197;SDS011;30157;55.512;37.764;2022-07-06T06:58:50;14.38;;;13.07;;
44197;SDS011;30157;55.512;37.764;2022-07-06T07:01:15;13.80;;;12.50;;
44197;SDS011;30157;55.512;37.764;2022-07-06T07:03:41;13.98;;;12.35;;
44197;SDS011;30157;55.512;37.764;2022-07-06T07:06:07;14.20;;;12.73;;
44197;SDS011;30157;55.512;37.764;2022-07-06T07:08:33;14.52;;;13.02;;
44197;SDS011;30157;55.512;37.764;2022-07-06T07:10:58;13.18;;;11.73;;
44197;SDS011;30157;55.512;37.764;2022-07-06T07:13:24;12.63;;;11.32;;
44197;SDS011;30157;55.512;37.764;2022-07-06T07:15:50;14.32;;;12.93;;
44197;SDS011;30157;55.512;37.764;2022-07-06T07:18:16;11.88;;;10.70;;
44197;SDS011;30157;55.512;37.764;2022-07-06T07:20:41;11.13;;;10.00;;
44197;SDS011;30157;55.512;37.764;2022-07-06T07:23:07;15.02;;;13.43;;
44197;SDS011;30157;55.512;37.764;2022-07-06T07:25:33;12.90;;;11.70;;
44197;SDS011;30157;55.512;37.764;2022-07-06T07:27:59;12.60;;;11.30;;
44197;SDS011;30157;55.512;37.764;2022-07-06T07:30:25;14.35;;;11.40;;
44197;SDS011;30157;55.512;37.764;2022-07-06T07:32:51;13.85;;;12.55;;
44197;SDS011;30157;55.512;37.764;2022-07-06T07:35:16;14.30;;;12.80;;
44197;SDS011;30157;55.512;37.764;2022-07-06T07:37:42;13.70;;;12.25;;
44197;SDS011;30157;55.512;37.764;2022-07-06T07:40:08;13.80;;;12.40;;
44197;SDS011;30157;55.512;37.764;2022-07-06T07:42:34;13.70;;;12.40;;
44197;SDS011;30157;55.512;37.764;2022-07-06T07:45:00;14.32;;;12.93;;
44197;SDS011;30157;55.512;37.764;2022-07-06T07:47:26;13.65;;;12.27;;
44197;SDS011;30157;55.512;37.764;2022-07-06T07:49:52;14.10;;;12.75;;
44197;SDS011;30157;55.512;37.764;2022-07-06T07:52:17;13.68;;;12.38;;
44197;SDS011;30157;55.512;37.764;2022-07-06T07:54:43;14.02;;;12.73;;
44197;SDS011;30157;55.512;37.764;2022-07-06T07:57:09;14.55;;;13.05;;
44197;SDS011;30157;55.512;37.764;2022-07-06T07:59:35;13.70;;;12.40;;
44197;SDS011;30157;55.512;37.764;2022-07-06T08:02:01;13.18;;;11.68;;
44197;SDS011;30157;55.512;37.764;2022-07-06T08:04:27;13.35;;;12.20;;
44197;SDS011;30157;55.512;37.764;2022-07-06T08:06:52;10.82;;;9.82;;
44197;SDS011;30157;55.512;37.764;2022-07-06T08:09:20;10.43;;;9.52;;
44197;SDS011;30157;55.512;37.764;2022-07-06T08:11:46;10.00;;;9.10;;
44197;SDS011;30157;55.512;37.764;2022-07-06T08:14:12;10.60;;;9.60;;
44197;SDS011;30157;55.512;37.764;2022-07-06T08:16:39;9.93;;;9.00;;
44197;SDS011;30157;55.512;37.764;2022-07-06T08:19:05;10.23;;;9.23;;
44197;SDS011;30157;55.512;37.764;2022-07-06T08:21:31;13.57;;;11.93;;
44197;SDS011;30157;55.512;37.764;2022-07-06T08:23:57;11.90;;;10.80;;
44197;SDS011;30157;55.512;37.764;2022-07-06T08:26:25;12.07;;;10.88;;
44197;SDS011;30157;55.512;37.764;2022-07-06T08:28:50;10.88;;;9.90;;
44197;SDS011;30157;55.512;37.764;2022-07-06T08:31:17;11.95;;;10.85;;
44197;SDS011;30157;55.512;37.764;2022-07-06T08:33:42;10.30;;;9.40;;
44197;SDS011;30157;55.512;37.764;2022-07-06T08:36:08;11.25;;;10.18;;
44197;SDS011;30157;55.512;37.764;2022-07-06T08:38:34;10.65;;;9.65;;
44197;SDS011;30157;55.512;37.764;2022-07-06T08:41:00;12.52;;;11.23;;
44197;SDS011;30157;55.512;37.764;2022-07-06T08:43:25;12.65;;;11.40;;
44197;SDS011;30157;55.512;37.764;2022-07-06T08:45:52;12.30;;;11.02;;
44197;SDS011;30157;55.512;37.764;2022-07-06T08:48:19;12.70;;;11.50;;
44197;SDS011;30157;55.512;37.764;2022-07-06T08:50:48;13.68;;;12.38;;
44197;SDS011;30157;55.512;37.764;2022-07-06T08:53:15;11.45;;;10.45;;
44197;SDS011;30157;55.512;37.764;2022-07-06T08:55:42;12.55;;;10.45;;
44197;SDS011;30157;55.512;37.764;2022-07-06T08:58:09;11.85;;;10.75;;
44197;SDS011;30157;55.512;37.764;2022-07-06T09:00:35;11.90;;;10.88;;
44197;SDS011;30157;55.512;37.764;2022-07-06T09:03:01;11.80;;;10.73;;
44197;SDS011;30157;55.512;37.764;2022-07-06T09:05:28;11.68;;;10.57;;
44197;SDS011;30157;55.512;37.764;2022-07-06T09:07:54;12.77;;;10.93;;
44197;SDS011;30157;55.512;37.764;2022-07-06T09:10:21;11.63;;;10.48;;
44197;SDS011;30157;55.512;37.764;2022-07-06T09:12:47;11.75;;;10.57;;
44197;SDS011;30157;55.512;37.764;2022-07-06T09:15:14;11.48;;;10.48;;
44197;SDS011;30157;55.512;37.764;2022-07-06T09:17:41;12.55;;;11.35;;
44197;SDS011;30157;55.512;37.764;2022-07-06T09:20:08;12.00;;;10.90;;
44197;SDS011;30157;55.512;37.764;2022-07-06T09:22:39;12.85;;;11.65;;
44197;SDS011;30157;55.512;37.764;2022-07-06T09:25:10;11.95;;;10.85;;
44197;SDS011;30157;55.512;37.764;2022-07-06T09:27:41;12.35;;;11.15;;
44197;SDS011;30157;55.512;37.764;2022-07-06T09:30:11;14.32;;;12.95;;
44197;SDS011;30157;55.512;37.764;2022-07-06T09:32:39;13.10;;;11.88;;
44197;SDS011;30157;55.512;37.764;2022-07-06T09:35:06;13.23;;;12.02;;
44197;SDS011;30157;55.512;37.764;2022-07-06T09:37:32;13.77;;;12.40;;
44197;SDS011;30157;55.512;37.764;2022-07-06T09:39:58;13.07;;;11.77;;
44197;SDS011;30157;55.512;37.764;2022-07-06T09:42:24;11.65;;;10.45;;
44197;SDS011;30157;55.512;37.764;2022-07-06T09:44:51;12.20;;;11.07;;
44197;SDS011;30157;55.512;37.764;2022-07-06T09:47:18;12.40;;;11.27;;
44197;SDS011;30157;55.512;37.764;2022-07-06T09:49:44;12.38;;;11.25;;
44197;SDS011;30157;55.512;37.764;2022-07-06T09:52:11;12.68;;;11.48;;
44197;SDS011;30157;55.512;37.764;2022-07-06T09:54:40;12.35;;;11.18;;
44197;SDS011;30157;55.512;37.764;2022-07-06T09:57:07;12.23;;;11.13;;
44197;SDS011;30157;55.512;37.764;2022-07-06T09:59:33;10.85;;;9.85;;
44197;SDS011;30157;55.512;37.764;2022-07-06T10:02:06;10.80;;;9.80;;
44197;SDS011;30157;55.512;37.764;2022-07-06T10:04:33;11.65;;;10.57;;
44197;SDS011;30157;55.512;37.764;2022-07-06T10:07:02;12.90;;;11.48;;
44197;SDS011;30157;55.512;37.764;2022-07-06T10:09:29;11.68;;;10.48;;
44197;SDS011;30157;55.512;37.764;2022-07-06T10:12:02;12.20;;;11.05;;
44197;SDS011;30157;55.512;37.764;2022-07-06T10:14:29;11.65;;;10.25;;
44197;SDS011;30157;55.512;37.764;2022-07-06T10:16:56;12.15;;;10.93;;
44197;SDS011;30157;55.512;37.764;2022-07-06T10:19:23;12.95;;;11.70;;
44197;SDS011;30157;55.512;37.764;2022-07-06T10:21:49;11.10;;;10.10;;
44197;SDS011;30157;55.512;37.764;2022-07-06T10:24:16;11.30;;;10.25;;
44197;SDS011;30157;55.512;37.764;2022-07-06T10:26:44;11.68;;;10.48;;
44197;SDS011;30157;55.512;37.764;2022-07-06T10:29:10;12.45;;;11.25;;
44197;SDS011;30157;55.512;37.764;2022-07-06T10:31:46;13.70;;;10.43;;
44197;SDS011;30157;55.512;37.764;2022-07-06T10:34:13;12.18;;;10.63;;
44197;SDS011;30157;55.512;37.764;2022-07-06T10:36:43;11.95;;;10.85;;
44197;SDS011;30157;55.512;37.764;2022-07-06T10:39:13;10.68;;;9.57;;
44197;SDS011;30157;55.512;37.764;2022-07-06T10:41:57;11.07;;;9.88;;
44197;SDS011;30157;55.512;37.764;2022-07-06T10:44:24;11.27;;;9.70;;
44197;SDS011;30157;55.512;37.764;2022-07-06T10:46:54;12.18;;;10.82;;
44197;SDS011;30157;55.512;37.764;2022-07-06T10:49:22;18.90;;;14.88;;
44197;SDS011;30157;55.512;37.764;2022-07-06T10:51:49;13.68;;;12.32;;
44197;SDS011;30157;55.512;37.764;2022-07-06T10:54:17;11.77;;;10.63;;
44197;SDS011;30157;55.512;37.764;2022-07-06T10:56:47;11.05;;;10.05;;
44197;SDS011;30157;55.512;37.764;2022-07-06T10:59:17;10.95;;;9.85;;
44197;SDS011;30157;55.512;37.764;2022-07-06T11:04:40;9.98;;;8.98;;
44197;SDS011;30157;55.512;37.764;2022-07-06T11:07:11;10.73;;;9.73;;
44197;SDS011;30157;55.512;37.764;2022-07-06T11:09:42;8.63;;;7.82;;
44197;SDS011;30157;55.512;37.764;2022-07-06T11:12:20;8.80;;;8.00;;
44197;SDS011;30157;55.512;37.764;2022-07-06T11:14:47;9.57;;;8.68;;
44197;SDS011;30157;55.512;37.764;2022-07-06T11:17:14;8.98;;;8.18;;
44197;SDS011;30157;55.512;37.764;2022-07-06T11:20:08;9.05;;;8.15;;
44197;SDS011;30157;55.512;37.764;2022-07-06T11:22:37;9.25;;;8.30;;
44197;SDS011;30157;55.512;37.764;2022-07-06T11:25:04;9.93;;;8.93;;
44197;SDS011;30157;55.512;37.764;2022-07-06T11:27:31;9.13;;;8.02;;
44197;SDS011;30157;55.512;37.764;2022-07-06T11:29:59;10.52;;;9.48;;
44197;SDS011;30157;55.512;37.764;2022-07-06T11:32:26;10.02;;;9.13;;
44197;SDS011;30157;55.512;37.764;2022-07-06T11:34:53;10.48;;;9.48;;
44197;SDS011;30157;55.512;37.764;2022-07-06T11:37:19;11.18;;;9.40;;
44197;SDS011;30157;55.512;37.764;2022-07-06T11:39:46;10.90;;;9.90;;
44197;SDS011;30157;55.512;37.764;2022-07-06T11:42:13;12.15;;;10.88;;
44197;SDS011;30157;55.512;37.764;2022-07-06T11:44:42;13.40;;;11.23;;
44197;SDS011;30157;55.512;37.764;2022-07-06T11:47:09;12.60;;;10.98;;
44197;SDS011;30157;55.512;37.764;2022-07-06T11:49:36;12.95;;;11.63;;
44197;SDS011;30157;55.512;37.764;2022-07-06T11:52:11;12.10;;;10.52;;
44197;SDS011;30157;55.512;37.764;2022-07-06T11:54:38;10.98;;;9.88;;
44197;SDS011;30157;55.512;37.764;2022-07-06T11:57:07;9.10;;;8.18;;
44197;SDS011;30157;55.512;37.764;2022-07-06T11:59:38;12.10;;;8.85;;
44197;SDS011;30157;55.512;37.764;2022-07-06T12:02:05;13.98;;;9.43;;
44197;SDS011;30157;55.512;37.764;2022-07-06T12:04:40;13.13;;;8.48;;
44197;SDS011;30157;55.512;37.764;2022-07-06T12:07:11;13.93;;;9.00;;
44197;SDS011;30157;55.512;37.764;2022-07-06T12:09:42;14.70;;;9.25;;
44197;SDS011;30157;55.512;37.764;2022-07-06T12:12:12;10.40;;;8.35;;
44197;SDS011;30157;55.512;37.764;2022-07-06T12:14:39;10.35;;;8.27;;
44197;SDS011;30157;55.512;37.764;2022-07-06T12:17:07;10.07;;;8.52;;
44197;SDS011;30157;55.512;37.764;2022-07-06T12:19:34;8.75;;;7.85;;
44197;SDS011;30157;55.512;37.764;2022-07-06T12:22:02;8.23;;;7.35;;
44197;SDS011;30157;55.512;37.764;2022-07-06T12:24:29;8.30;;;7.40;;
44197;SDS011;30157;55.512;37.764;2022-07-06T12:26:56;8.00;;;7.20;;
44197;SDS011;30157;55.512;37.764;2022-07-06T12:29:23;7.22;;;6.53;;
44197;SDS011;30157;55.512;37.764;2022-07-06T12:31:53;7.43;;;6.72;;
44197;SDS011;30157;55.512;37.764;2022-07-06T12:34:26;7.25;;;6.55;;
44197;SDS011;30157;55.512;37.764;2022-07-06T12:36:57;7.90;;;6.57;;
44197;SDS011;30157;55.512;37.764;2022-07-06T12:39:25;8.32;;;6.47;;
44197;SDS011;30157;55.512;37.764;2022-07-06T12:42:00;7.63;;;6.80;;
44197;SDS011;30157;55.512;37.764;2022-07-06T12:44:33;7.40;;;6.70;;
44197;SDS011;30157;55.512;37.764;2022-07-06T12:47:11;8.32;;;7.53;;
44197;SDS011;30157;55.512;37.764;2022-07-06T12:49:37;6.30;;;5.70;;
44197;SDS011;30157;55.512;37.764;2022-07-06T12:54:43;6.85;;;6.15;;
44197;SDS011;30157;55.512;37.764;2022-07-06T13:02:30;7.05;;;5.80;;
44197;SDS011;30157;55.512;37.764;2022-07-06T13:05:01;7.65;;;6.25;;
44197;SDS011;30157;55.512;37.764;2022-07-06T13:07:30;7.88;;;6.10;;
44197;SDS011;30157;55.512;37.764;2022-07-06T13:09:57;7.68;;;6.82;;
44197;SDS011;30157;55.512;37.764;2022-07-06T13:12:23;8.02;;;7.13;;
44197;SDS011;30157;55.512;37.764;2022-07-06T13:14:50;8.57;;;7.30;;
44197;SDS011;30157;55.512;37.764;2022-07-06T13:17:17;8.18;;;7.38;;
44197;SDS011;30157;55.512;37.764;2022-07-06T13:19:43;8.65;;;7.68;;
44197;SDS011;30157;55.512;37.764;2022-07-06T13:22:08;9.85;;;7.97;;
44197;SDS011;30157;55.512;37.764;2022-07-06T13:24:34;9.82;;;8.45;;
44197;SDS011;30157;55.512;37.764;2022-07-06T13:27:01;11.30;;;8.80;;
44197;SDS011;30157;55.512;37.764;2022-07-06T13:29:26;10.40;;;9.38;;
44197;SDS011;30157;55.512;37.764;2022-07-06T13:31:52;10.57;;;9.18;;
44197;SDS011;30157;55.512;37.764;2022-07-06T13:34:18;10.93;;;9.25;;
44197;SDS011;30157;55.512;37.764;2022-07-06T13:36:44;10.30;;;8.43;;
44197;SDS011;30157;55.512;37.764;2022-07-06T13:39:09;10.02;;;8.57;;
44197;SDS011;30157;55.512;37.764;2022-07-06T13:41:37;9.60;;;8.60;;
44197;SDS011;30157;55.512;37.764;2022-07-06T13:44:02;9.88;;;8.50;;
44197;SDS011;30157;55.512;37.764;2022-07-06T13:46:29;9.32;;;8.38;;
44197;SDS011;30157;55.512;37.764;2022-07-06T13:48:56;9.15;;;8.25;;
44197;SDS011;30157;55.512;37.764;2022-07-06T13:51:23;9.85;;;7.75;;
44197;SDS011;30157;55.512;37.764;2022-07-06T13:53:49;8.40;;;7.60;;
44197;SDS011;30157;55.512;37.764;2022-07-06T13:56:15;8.85;;;7.68;;
44197;SDS011;30157;55.512;37.764;2022-07-06T13:58:42;8.95;;;8.00;;
44197;SDS011;30157;55.512;37.764;2022-07-06T14:01:08;10.30;;;8.25;;
44197;SDS011;30157;55.512;37.764;2022-07-06T14:03:34;9.00;;;8.07;;
44197;SDS011;30157;55.512;37.764;2022-07-06T14:06:02;8.75;;;7.85;;
44197;SDS011;30157;55.512;37.764;2022-07-06T14:08:28;9.48;;;8.32;;
44197;SDS011;30157;55.512;37.764;2022-07-06T14:10:54;9.52;;;8.63;;
44197;SDS011;30157;55.512;37.764;2022-07-06T14:13:21;9.40;;;7.80;;
44197;SDS011;30157;55.512;37.764;2022-07-06T14:15:47;11.57;;;8.23;;
44197;SDS011;30157;55.512;37.764;2022-07-06T14:18:13;12.18;;;8.27;;
44197;SDS011;30157;55.512;37.764;2022-07-06T14:20:40;11.13;;;8.25;;
44197;SDS011;30157;55.512;37.764;2022-07-06T14:23:08;9.52;;;7.47;;
44197;SDS011;30157;55.512;37.764;2022-07-06T14:25:34;12.95;;;8.48;;